Data for 02/23/2013

Time Sea-Level Adjusted Pressure Absolute Pressure Temperature Relative Humidity Dew Point   
(mb) (inHg) (mb) (inHg) (C) (F) (%) (C) (F)
00:05 1007 29.74 836 24.69 1.5 34.7 48 -8.5 16.8
00:10 1007 29.74 836 24.69 1.5 34.7 50 -7.8 18
00:15 1007 29.74 836 24.69 1.2 34.2 50 -8 17.6
00:20 1007 29.74 836 24.69 1.4 34.5 47 -8.6 16.4
00:25 1007 29.74 836 24.69 1.6 34.8 49 -8 17.6
00:30 1007 29.74 836 24.69 1.5 34.7 49 -8.2 17.2
00:35 1007 29.74 836 24.69 1.5 34.7 49 -8.1 17.5
00:40 1007 29.74 836 24.69 1.2 34.2 51 -7.9 17.9
00:45 1007 29.74 836 24.69 1.1 33.9 51 -8 17.5
00:50 1006 29.71 836 24.69 1.2 34.2 46 -9 15.7
00:55 1006 29.71 835 24.66 1.6 34.8 47 -8.6 16.5
01:00 1006 29.71 835 24.66 1.4 34.5 49 -8.3 17.1
01:05 1006 29.71 835 24.66 1.1 34 49 -8.5 16.7
01:10 1006 29.71 835 24.66 1.2 34.1 48 -8.7 16.4
01:15 1006 29.71 835 24.66 1.3 34.3 47 -8.7 16.3
01:20 1006 29.71 835 24.66 1.3 34.3 49 -8.4 16.9
01:25 1006 29.71 835 24.66 1.1 34 49 -8.5 16.6
01:30 1006 29.71 835 24.66 1.2 34.1 49 -8.3 17.1
01:35 1006 29.71 836 24.69 1.1 34 50 -8.2 17.3
01:40 1006 29.71 836 24.69 0.9 33.6 51 -8.1 17.4
01:45 1006 29.71 836 24.69 0.8 33.4 52 -8.1 17.5
01:50 1006 29.71 836 24.69 0.7 33.2 53 -7.9 17.8
01:55 1006 29.71 836 24.69 0.6 33 53 -7.9 17.8
02:00 1006 29.71 836 24.69 0.6 33.1 53 -7.9 17.7
02:05 1006 29.71 836 24.69 0.8 33.4 52 -8 17.7
02:10 1006 29.71 835 24.66 0.9 33.5 52 -8 17.5
02:15 1006 29.71 835 24.66 0.9 33.6 52 -7.8 17.9
02:20 1006 29.71 835 24.66 0.8 33.4 53 -7.7 18.2
02:25 1006 29.71 835 24.66 0.7 33.3 52 -7.9 17.7
02:30 1006 29.71 835 24.66 0.7 33.3 52 -8 17.6
02:35 1006 29.71 835 24.66 0.8 33.4 52 -7.9 17.7
02:40 1006 29.71 835 24.66 0.8 33.5 52 -8 17.6
02:45 1006 29.71 835 24.66 0.9 33.5 51 -8.1 17.4
02:50 1006 29.71 835 24.66 0.8 33.5 53 -7.6 18.4
02:55 1006 29.71 835 24.66 0.7 33.3 55 -7.3 18.9
03:00 1006 29.71 835 24.66 0.4 32.8 55 -7.6 18.4
03:05 1006 29.71 835 24.66 0.3 32.6 56 -7.4 18.8
03:10 1006 29.71 835 24.66 0.2 32.4 57 -7.3 18.9
03:15 1006 29.71 835 24.66 0.1 32.1 57 -7.4 18.6
03:20 1006 29.71 835 24.66 -0.2 31.6 58 -7.5 18.5
03:25 1006 29.71 835 24.66 -0.2 31.6 57 -7.7 18.2
03:30 1006 29.71 835 24.66 -0.1 31.8 56 -7.8 17.9
03:35 1006 29.71 835 24.66 -0 32 57 -7.5 18.4
03:40 1006 29.71 835 24.66 -0.1 31.9 56 -7.8 18
03:45 1005 29.68 835 24.66 0 32 55 -7.9 17.8
03:50 1005 29.68 835 24.66 0.1 32.1 55 -7.8 17.9
03:55 1005 29.68 835 24.66 0.1 32.1 58 -7.3 18.9
04:00 1005 29.68 834 24.63 -0.1 31.8 58 -7.4 18.6
04:05 1005 29.68 834 24.63 -0.1 31.8 57 -7.6 18.3
04:10 1005 29.68 834 24.63 0.1 32.1 56 -7.7 18.2
04:15 1005 29.68 834 24.63 0.2 32.3 55 -7.8 18
04:20 1005 29.68 834 24.63 0.2 32.4 53 -8.1 17.3
04:25 1005 29.68 834 24.63 0.4 32.8 55 -7.6 18.2
04:30 1005 29.68 834 24.63 0.2 32.3 55 -7.9 17.9
04:35 1005 29.68 834 24.63 0.3 32.5 55 -7.8 18
04:40 1005 29.68 834 24.63 0.4 32.7 54 -8 17.6
04:45 1005 29.68 834 24.63 0.3 32.5 56 -7.5 18.5
04:50 1005 29.68 834 24.63 0.1 32.2 57 -7.5 18.5
04:55 1005 29.68 834 24.63 0.1 32.2 57 -7.6 18.4
05:00 1005 29.68 834 24.63 0.2 32.4 56 -7.5 18.5
05:05 1005 29.68 834 24.63 0.3 32.5 56 -7.4 18.7
05:10 1005 29.68 834 24.63 0.3 32.5 57 -7.4 18.7
05:15 1004 29.65 834 24.63 0.2 32.4 57 -7.3 18.9
05:20 1004 29.65 834 24.63 0.1 32.2 58 -7.1 19.1
05:25 1004 29.65 834 24.63 0.1 32.2 58 -7.2 19.1
05:30 1005 29.68 834 24.63 0.2 32.4 58 -7.1 19.2
05:35 1005 29.68 834 24.63 0.3 32.5 58 -7.1 19.2
05:40 1005 29.68 834 24.63 0.3 32.6 58 -6.9 19.5
05:45 1005 29.68 834 24.63 0.3 32.6 58 -6.9 19.6
05:50 1005 29.68 834 24.63 0.3 32.6 60 -6.5 20.3
05:55 1005 29.68 834 24.63 0.1 32.1 61 -6.6 20
06:00 1005 29.68 834 24.63 0.2 32.3 64 -5.9 21.3
06:05 1004 29.65 834 24.63 0.1 32.3 64 -5.8 21.5
06:10 1004 29.65 834 24.63 -0 31.9 66 -5.6 21.9
06:15 1004 29.65 834 24.63 -0.2 31.7 69 -5.3 22.5
06:20 1004 29.65 834 24.63 -0.3 31.5 70 -5.1 22.8
06:25 1004 29.65 834 24.63 -0.3 31.4 72 -4.7 23.6
06:30 1004 29.65 833 24.6 -0.5 31.2 75 -4.4 24
06:35 1004 29.65 833 24.6 -0.6 30.9 76 -4.3 24.2
06:40 1004 29.65 833 24.6 -0.7 30.7 76 -4.4 24.1
06:45 1004 29.65 833 24.6 -0.8 30.6 77 -4.4 24.1
06:50 1004 29.65 833 24.6 -0.8 30.5 78 -4.3 24.3
06:55 1004 29.65 833 24.6 -1 30.2 78 -4.3 24.3
07:00 1004 29.65 833 24.6 -1.1 30 78 -4.4 24.1
07:05 1004 29.65 833 24.6 -1.2 29.9 78 -4.5 24
07:10 1004 29.65 833 24.6 -1.1 30 78 -4.4 24
07:15 1004 29.65 833 24.6 -1.1 30 78 -4.4 24
07:20 1004 29.65 833 24.6 -1.1 30.1 78 -4.5 24
07:25 1004 29.65 833 24.6 -1 30.2 77 -4.5 23.9
07:30 1004 29.65 833 24.6 -1 30.2 77 -4.6 23.7
07:35 1004 29.65 833 24.6 -1 30.2 75 -4.8 23.3
07:40 1004 29.65 833 24.6 -1 30.2 75 -4.9 23.1
07:45 1004 29.65 833 24.6 -1 30.3 74 -5.1 22.9
07:50 1004 29.65 833 24.6 -0.9 30.3 72 -5.4 22.3
07:55 1004 29.65 833 24.6 -0.9 30.4 71 -5.5 22
08:00 1004 29.65 834 24.63 -0.9 30.4 70 -5.6 21.9
08:05 1005 29.68 834 24.63 -0.8 30.6 70 -5.7 21.8
08:10 1005 29.68 834 24.63 -0.8 30.6 69 -5.7 21.7
08:15 1005 29.68 834 24.63 -0.7 30.7 70 -5.6 22
08:20 1005 29.68 834 24.63 -0.5 31 71 -5.1 22.7
08:25 1005 29.68 834 24.63 -0.6 30.9 83 -3.2 26.3
08:30 1005 29.68 835 24.66 -1.2 29.8 90 -2.6 27.3
08:35 1006 29.71 835 24.66 -1.7 28.9 93 -2.8 27
08:40 1006 29.71 835 24.66 -2 28.4 94 -2.9 26.8
08:45 1006 29.71 835 24.66 -2.2 28.1 94 -3 26.7
08:50 1006 29.71 835 24.66 -2.3 27.9 94 -3 26.5
08:55 1006 29.71 835 24.66 -2.6 27.2 94 -3.5 25.7
09:00 1006 29.71 836 24.69 -3 26.7 94 -3.7 25.3
09:05 1006 29.71 836 24.69 -3 26.6 94 -3.8 25.2
09:10 1006 29.71 836 24.69 -3 26.6 94 -3.8 25.2
09:15 1006 29.71 836 24.69 -3 26.6 94 -3.8 25.2
09:20 1006 29.71 836 24.69 -3 26.5 95 -3.8 25.2
09:25 1007 29.74 836 24.69 -3 26.6 95 -3.7 25.4
09:30 1007 29.74 836 24.69 -3.1 26.5 94 -3.9 25
09:35 1007 29.74 836 24.69 -3.3 26.1 94 -4.1 24.6
09:40 1007 29.74 836 24.69 -3.4 26 94 -4.2 24.5
09:45 1007 29.74 837 24.72 -3.4 25.9 94 -4.2 24.4
09:50 1007 29.74 837 24.72 -3.4 26 94 -4.2 24.5
09:55 1008 29.77 837 24.72 -3.4 25.9 94 -4.2 24.4
10:00 1008 29.77 837 24.72 -3.4 25.9 94 -4.2 24.5
10:05 1008 29.77 837 24.72 -3.4 25.9 94 -4.2 24.5
10:10 1008 29.77 837 24.72 -3.4 26 93 -4.4 24.1
10:15 1008 29.77 837 24.72 -3.4 25.9 92 -4.5 23.9
10:20 1008 29.77 837 24.72 -3.4 25.9 91 -4.7 23.5
10:25 1008 29.77 837 24.72 -3.4 25.9 92 -4.6 23.8
10:30 1008 29.77 837 24.72 -3.2 26.3 92 -4.3 24.2
10:35 1008 29.77 838 24.75 -3.1 26.4 91 -4.5 24
10:40 1008 29.77 838 24.75 -3.2 26.3 92 -4.4 24.1
10:45 1008 29.77 838 24.75 -3.1 26.5 91 -4.3 24.3
10:50 1008 29.77 838 24.75 -2.8 26.9 91 -4.1 24.6
10:55 1008 29.77 838 24.75 -2.7 27.1 89 -4.3 24.3
11:00 1009 29.8 838 24.75 -3 26.6 90 -4.4 24.1
11:05 1009 29.8 838 24.75 -3 26.6 89 -4.6 23.7
11:10 1009 29.8 838 24.75 -3.2 26.2 88 -5 23
11:15 1009 29.8 838 24.75 -3.5 25.7 89 -5.1 22.7
11:20 1009 29.8 838 24.75 -3.5 25.7 88 -5.2 22.7
11:25 1009 29.8 838 24.75 -3.6 25.6 88 -5.2 22.6
11:30 1009 29.8 838 24.75 -3.5 25.7 86 -5.4 22.2
11:35 1009 29.8 838 24.75 -3.2 26.2 82 -5.9 21.4
11:40 1009 29.8 838 24.75 -3.1 26.4 77 -6.6 20.1
11:45 1009 29.8 838 24.75 -3 26.6 75 -6.8 19.7
11:50 1009 29.8 838 24.75 -2.9 26.7 75 -6.7 19.9
11:55 1009 29.8 838 24.75 -2.7 27.2 73 -6.9 19.6
12:00 1009 29.8 838 24.75 -2.2 28 71 -6.9 19.6
12:05 1009 29.8 838 24.75 -2.3 28 73 -6.5 20.2
12:10 1009 29.8 838 24.75 -2 28.4 70 -6.7 19.9
12:15 1009 29.8 838 24.75 -2 28.3 70 -6.8 19.7
12:20 1009 29.8 838 24.75 -2.2 28 73 -6.5 20.3
12:25 1009 29.8 838 24.75 -2.3 27.8 78 -5.7 21.7
12:30 1009 29.8 838 24.75 -2.4 27.7 79 -5.5 22.1
12:35 1009 29.8 838 24.75 -2.5 27.5 78 -5.8 21.5
12:40 1009 29.8 838 24.75 -2.6 27.3 81 -5.4 22.2
12:45 1009 29.8 839 24.78 -2.9 26.8 82 -5.6 22
12:50 1010 29.83 839 24.78 -3.1 26.5 82 -5.7 21.7
12:55 1010 29.83 839 24.78 -3 26.7 83 -5.4 22.2
13:00 1010 29.83 839 24.78 -3 26.6 82 -5.6 21.9
13:05 1010 29.83 839 24.78 -3.1 26.4 83 -5.7 21.8
13:10 1010 29.83 839 24.78 -3.5 25.8 85 -5.6 21.9
13:15 1010 29.83 839 24.78 -3.2 26.2 84 -5.6 21.9
13:20 1010 29.83 839 24.78 -3.2 26.3 83 -5.6 21.9
13:25 1010 29.83 839 24.78 -3.1 26.5 82 -5.7 21.8
13:30 1010 29.83 839 24.78 -3.2 26.2 82 -5.9 21.4
13:35 1010 29.83 839 24.78 -3.1 26.3 80 -6.2 20.9
13:40 1009 29.8 839 24.78 -3.2 26.3 82 -5.8 21.6
13:45 1009 29.8 839 24.78 -3.4 26 80 -6.3 20.7
13:50 1009 29.8 839 24.78 -3.5 25.7 82 -6.2 20.8
13:55 1009 29.8 839 24.78 -3.6 25.5 82 -6.2 20.8
14:00 1009 29.8 839 24.78 -3.4 25.8 78 -6.7 19.9
14:05 1009 29.8 839 24.78 -3.3 26.1 78 -6.5 20.2
14:10 1009 29.8 839 24.78 -3.1 26.4 76 -6.8 19.7
14:15 1010 29.83 839 24.78 -3.3 26.1 77 -6.8 19.8
14:20 1010 29.83 839 24.78 -3.1 26.4 72 -7.5 18.4
14:25 1010 29.83 839 24.78 -2.7 27.1 69 -7.6 18.2
14:30 1009 29.8 839 24.78 -2.3 27.9 70 -7.1 19.3
14:35 1009 29.8 839 24.78 -2.3 27.9 70 -7.1 19.3
14:40 1009 29.8 839 24.78 -2.3 27.9 71 -6.9 19.6
14:45 1010 29.83 839 24.78 -2.2 28 68 -7.4 18.6
14:50 1010 29.83 839 24.78 -2.4 27.6 69 -7.3 18.9
14:55 1010 29.83 839 24.78 -2.6 27.3 69 -7.6 18.4
15:00 1010 29.83 839 24.78 -2.7 27.1 68 -7.8 18
15:05 1010 29.83 839 24.78 -2.7 27.2 65 -8.3 17.1
15:10 1010 29.83 839 24.78 -2.3 27.9 65 -8 17.5
15:15 1010 29.83 839 24.78 -1.9 28.6 61 -8.4 16.8
15:20 1010 29.83 839 24.78 -2.4 27.7 64 -8.4 16.9
15:25 1010 29.83 839 24.78 -2.6 27.3 65 -8.3 17
15:30 1010 29.83 839 24.78 -3 26.6 68 -8.1 17.4
15:35 1010 29.83 839 24.78 -3 26.6 66 -8.5 16.7
15:40 1010 29.83 839 24.78 -2.7 27.1 65 -8.4 16.8
15:45 1010 29.83 839 24.78 -2.8 27 66 -8.2 17.3
15:50 1010 29.83 839 24.78 -2.7 27.1 67 -8.1 17.4
15:55 1010 29.83 839 24.78 -2.7 27.1 66 -8.2 17.2
16:00 1010 29.83 839 24.78 -2.4 27.7 64 -8.2 17.2
16:05 1010 29.83 839 24.78 -2.3 27.9 65 -8 17.6
16:10 1010 29.83 839 24.78 -2.7 27.1 66 -8.3 17
16:15 1010 29.83 839 24.78 -2.7 27.1 64 -8.6 16.6
16:20 1010 29.83 839 24.78 -2.7 27.2 65 -8.3 17
16:25 1010 29.83 839 24.78 -2.4 27.6 64 -8.3 17
16:30 1010 29.83 840 24.81 -2.7 27.1 64 -8.6 16.6
16:35 1010 29.83 840 24.81 -3 26.6 65 -8.7 16.4
16:40 1011 29.85 840 24.81 -3.2 26.3 64 -9 15.7
16:45 1011 29.85 840 24.81 -3.1 26.4 63 -9.2 15.4
16:50 1011 29.85 840 24.81 -3.1 26.3 64 -9.1 15.7
16:55 1011 29.85 840 24.81 -3.2 26.3 65 -8.9 16
17:00 1011 29.85 840 24.81 -3 26.5 63 -9.1 15.6
17:05 1011 29.85 840 24.81 -2.9 26.8 61 -9.4 15.1
17:10 1011 29.85 840 24.81 -2.9 26.7 60 -9.5 14.8
17:15 1011 29.85 840 24.81 -2.8 26.9 58 -10 14
17:20 1011 29.85 840 24.81 -2.8 27 57 -10 13.9
17:25 1011 29.85 840 24.81 -2.7 27.2 57 -10.1 13.8
17:30 1011 29.85 840 24.81 -2.6 27.3 56 -10.2 13.6
17:35 1011 29.85 840 24.81 -2.5 27.5 57 -10 14
17:40 1011 29.85 840 24.81 -2.5 27.6 54 -10.5 13.1
17:45 1011 29.85 840 24.81 -2.5 27.5 55 -10.3 13.5
17:50 1011 29.85 841 24.83 -2.5 27.6 53 -10.7 12.7
17:55 1011 29.85 841 24.83 -2.4 27.6 53 -10.7 12.8
18:00 1012 29.88 841 24.83 -2.5 27.5 54 -10.6 13
18:05 1012 29.88 841 24.83 -2.4 27.7 53 -10.6 12.9
18:10 1012 29.88 841 24.83 -2.3 27.9 51 -11.2 11.9
18:15 1012 29.88 841 24.83 -2.1 28.3 49 -11.4 11.4
18:20 1012 29.88 841 24.83 -2 28.4 49 -11.4 11.4
18:25 1012 29.88 841 24.83 -1.9 28.5 50 -11.1 12.1
18:30 1012 29.88 841 24.83 -1.8 28.8 49 -11.2 11.8
18:35 1012 29.88 841 24.83 -1.8 28.8 49 -11.1 12.1
18:40 1012 29.88 841 24.83 -1.8 28.7 51 -10.8 12.6
18:45 1012 29.88 842 24.86 -1.9 28.6 52 -10.5 13.2
18:50 1012 29.88 842 24.86 -2.2 28 56 -9.9 14.1
18:55 1013 29.91 842 24.86 -2.5 27.6 59 -9.5 14.9
19:00 1013 29.91 842 24.86 -2.8 26.9 63 -8.9 15.9
19:05 1013 29.91 842 24.86 -3.1 26.4 64 -9.1 15.7
19:10 1013 29.91 842 24.86 -3.3 26.1 62 -9.5 14.8
19:15 1013 29.91 842 24.86 -3.2 26.2 64 -9.2 15.5
19:20 1013 29.91 842 24.86 -3.2 26.2 64 -9.1 15.5
19:25 1013 29.91 842 24.86 -3.3 26 65 -8.9 15.9
19:30 1013 29.91 843 24.89 -3.4 25.8 66 -8.8 16.1
19:35 1013 29.91 843 24.89 -3.5 25.6 66 -9 15.8
19:40 1014 29.94 843 24.89 -3.5 25.8 66 -9 15.8
19:45 1014 29.94 843 24.89 -3.2 26.2 66 -8.8 16.2
19:50 1014 29.94 843 24.89 -3.1 26.4 64 -9 15.8
19:55 1014 29.94 843 24.89 -3.1 26.3 63 -9.2 15.4
20:00 1014 29.94 843 24.89 -3.1 26.4 63 -9.2 15.5
20:05 1014 29.94 843 24.89 -3 26.6 62 -9.4 15.2
20:10 1014 29.94 843 24.89 -2.9 26.7 59 -9.8 14.4
20:15 1014 29.94 843 24.89 -2.8 26.9 59 -9.7 14.5
20:20 1014 29.94 843 24.89 -2.8 27 59 -9.6 14.6
20:25 1014 29.94 843 24.89 -2.8 26.9 59 -9.7 14.5
20:30 1014 29.94 843 24.89 -2.9 26.8 60 -9.7 14.6
20:35 1014 29.94 843 24.89 -3 26.6 60 -9.6 14.7
20:40 1014 29.94 844 24.92 -3.1 26.4 61 -9.5 14.9
20:45 1014 29.94 844 24.92 -3.2 26.2 63 -9.3 15.2
20:50 1014 29.94 844 24.92 -3.2 26.2 63 -9.3 15.2
20:55 1015 29.97 844 24.92 -3.3 26.1 63 -9.4 15.1
21:00 1015 29.97 844 24.92 -3.3 26.1 65 -9.1 15.7
21:05 1015 29.97 844 24.92 -3.5 25.8 66 -9 15.9
21:10 1015 29.97 844 24.92 -3.6 25.6 65 -9.1 15.6
21:15 1015 29.97 844 24.92 -3.6 25.5 66 -9.1 15.6
21:20 1015 29.97 844 24.92 -3.6 25.5 65 -9.2 15.4
21:25 1015 29.97 844 24.92 -3.7 25.4 65 -9.2 15.4
21:30 1015 29.97 844 24.92 -3.7 25.4 65 -9.4 15
21:35 1015 29.97 844 24.92 -3.8 25.2 65 -9.5 14.9
21:40 1015 29.97 845 24.95 -3.8 25.2 65 -9.5 14.9
21:45 1015 29.97 845 24.95 -3.9 25 65 -9.6 14.7
21:50 1016 30 845 24.95 -3.9 25.1 65 -9.5 15
21:55 1016 30 845 24.95 -3.9 25 64 -9.7 14.5
22:00 1016 30 845 24.95 -3.9 25 65 -9.4 15
22:05 1016 30 845 24.95 -3.9 24.9 66 -9.5 14.9
22:10 1016 30 845 24.95 -3.9 24.9 64 -9.8 14.4
22:15 1016 30 845 24.95 -3.9 25.1 65 -9.5 14.9
22:20 1016 30 845 24.95 -3.8 25.1 66 -9.4 15.2
22:25 1016 30 845 24.95 -3.8 25.1 66 -9.3 15.3
22:30 1016 30 845 24.95 -3.9 25 67 -9.1 15.6
22:35 1016 30 845 24.95 -3.9 25.1 66 -9.3 15.2
22:40 1016 30 845 24.95 -3.8 25.2 66 -9.2 15.4
22:45 1016 30 845 24.95 -3.7 25.4 66 -9.1 15.6
22:50 1016 30 846 24.98 -3.7 25.4 67 -9 15.8
22:55 1016 30 846 24.98 -3.6 25.4 67 -8.8 16.1
23:00 1016 30 846 24.98 -3.6 25.4 68 -8.7 16.4
23:05 1016 30 846 24.98 -3.7 25.4 70 -8.3 17
23:10 1017 30.03 846 24.98 -3.7 25.4 70 -8.4 16.9
23:15 1017 30.03 846 24.98 -3.7 25.3 71 -8.2 17.2
23:20 1017 30.03 846 24.98 -3.8 25.2 72 -8.1 17.5
23:25 1017 30.03 846 24.98 -3.9 25 74 -7.8 17.9
23:30 1017 30.03 846 24.98 -4 24.8 75 -7.8 18
23:35 1017 30.03 846 24.98 -4.3 24.2 78 -7.7 18.2
23:40 1017 30.03 846 24.98 -4.8 23.4 81 -7.6 18.3
23:45 1017 30.03 846 24.98 -5 23.1 81 -7.7 18.1
23:50 1017 30.03 846 24.98 -5.2 22.7 83 -7.6 18.3
23:55 1017 30.03 846 24.98 -5.3 22.5 85 -7.5 18.5
24:00 1017 30.03 846 24.98 -5.3 22.4 86 -7.4 18.7